Аэропорт
Хомутово (UHSS)

 UHSS / UUS
ЗЦ Хабаровск
Хабаровск (UHHH)
Хабаровск (UHHH)
 46.88870, 142.71800  / 59 ft

 UHSS 150930Z 23001MPS 9999 BKN024CB 16/14 Q1003 R01/290060 NOSIG RMK MT OBSC QFE751/1001
 TAF UHSS 150735Z 1509/1615 04003MPS 9999 BKN020CB TEMPO 1509/1524 2000 TSRA BKN005 BKN011CB
UHSS_j_0220
показать схемы
Название сценария Тип сценария Flight Simulator 9 Flight Simulator X Prepar3D v2 Prepar3D v3 Prepar3D v4 Prepar3D v5 xPlane
FSX-UHSS-2015 бесплатный
P3D-UHSS-2015 бесплатный
UHSS P3Dv4 бесплатный
UHSS-FS9 бесплатный
UHSS_XPL бесплатный

Аэропорт Южно-Сахалинск имени Антона Чехова или Хомутово (IATA: UUS, ICAO: UHSS) — международный аэропорт федерального значения Южно-Сахалинска, расположенный в десяти километрах от центра города, в планировочном районе Южно-Сахалинска Хомутово.

Размеры (м) ИВПП 01/19 3400x60 Покрытие полимерный асфальтбетон. Классификационное число ВПП (PCN) 43/R/A/X/T.

 

 



2020 © VATRUS division (Privacy Policy)